Blodgett, Oregon
Current Conditions -  °F | °C
As of 3:55 PM on Saturday 25 Oct 2014 (Local Time) from KCVO Reporting Station
Broken Clouds Broken Clouds  
Wind Chill: 57°   Ceiling: 3200
Heat Index: 57°   Visibility: 4mi
Dew Point: 55°   Wind: 17mph
Humidity: 94%   Direction: 210°SSW
Pressure: 29.54"   Gusts: 24mph
Location:  44.6°N, 123.52°W
Report Text: KCVO 252255Z AUTO 21015G21KT 4SM FEW015 SCT023 BKN032 14/13 A2954 RMK AO1 P0002
Loading
Personal Weather Stations






























Interactive Weather Map
Tropical Storm Tracking
New forecast layout! Learn more

10-Day Weather Forecast

Advertisements
Track Severe Weather on mobile